sensor_id;sensor_type;location;lat;lon;timestamp;P1;durP1;ratioP1;P2;durP2;ratioP2
19006;SDS011;9636;47.382;8.480;2023-05-29T00:01:54;3.40;;;3.10;;
19006;SDS011;9636;47.382;8.480;2023-05-29T00:04:20;4.13;;;3.40;;
19006;SDS011;9636;47.382;8.480;2023-05-29T00:06:47;4.07;;;3.30;;
19006;SDS011;9636;47.382;8.480;2023-05-29T00:09:14;3.47;;;3.17;;
19006;SDS011;9636;47.382;8.480;2023-05-29T00:11:41;3.63;;;3.20;;
19006;SDS011;9636;47.382;8.480;2023-05-29T00:14:08;3.67;;;3.20;;
19006;SDS011;9636;47.382;8.480;2023-05-29T00:16:39;3.33;;;3.03;;
19006;SDS011;9636;47.382;8.480;2023-05-29T00:19:06;3.80;;;3.33;;
19006;SDS011;9636;47.382;8.480;2023-05-29T00:21:34;3.60;;;3.30;;
19006;SDS011;9636;47.382;8.480;2023-05-29T00:24:00;4.23;;;3.30;;
19006;SDS011;9636;47.382;8.480;2023-05-29T00:26:27;3.30;;;3.00;;
19006;SDS011;9636;47.382;8.480;2023-05-29T00:28:54;3.50;;;3.20;;
19006;SDS011;9636;47.382;8.480;2023-05-29T00:31:21;3.92;;;3.30;;
19006;SDS011;9636;47.382;8.480;2023-05-29T00:33:50;3.40;;;3.10;;
19006;SDS011;9636;47.382;8.480;2023-05-29T00:36:17;3.88;;;3.38;;
19006;SDS011;9636;47.382;8.480;2023-05-29T00:38:44;3.35;;;3.05;;
19006;SDS011;9636;47.382;8.480;2023-05-29T00:41:13;4.13;;;3.20;;
19006;SDS011;9636;47.382;8.480;2023-05-29T00:43:40;3.88;;;3.20;;
19006;SDS011;9636;47.382;8.480;2023-05-29T00:46:07;3.75;;;3.35;;
19006;SDS011;9636;47.382;8.480;2023-05-29T00:48:35;4.10;;;3.42;;
19006;SDS011;9636;47.382;8.480;2023-05-29T00:51:03;3.60;;;3.23;;
19006;SDS011;9636;47.382;8.480;2023-05-29T00:53:31;3.50;;;3.20;;
19006;SDS011;9636;47.382;8.480;2023-05-29T00:55:58;3.40;;;3.10;;
19006;SDS011;9636;47.382;8.480;2023-05-29T00:58:26;3.57;;;3.27;;
19006;SDS011;9636;47.382;8.480;2023-05-29T01:00:53;3.30;;;3.00;;
19006;SDS011;9636;47.382;8.480;2023-05-29T01:03:20;4.30;;;3.30;;
19006;SDS011;9636;47.382;8.480;2023-05-29T01:05:48;3.25;;;2.95;;
19006;SDS011;9636;47.382;8.480;2023-05-29T01:08:18;3.72;;;3.38;;
19006;SDS011;9636;47.382;8.480;2023-05-29T01:10:45;3.78;;;3.33;;
19006;SDS011;9636;47.382;8.480;2023-05-29T01:13:16;3.70;;;3.30;;
19006;SDS011;9636;47.382;8.480;2023-05-29T01:15:49;3.60;;;3.30;;
19006;SDS011;9636;47.382;8.480;2023-05-29T01:18:27;3.72;;;3.20;;
19006;SDS011;9636;47.382;8.480;2023-05-29T01:21:03;3.90;;;3.10;;
19006;SDS011;9636;47.382;8.480;2023-05-29T01:23:40;3.50;;;3.20;;
19006;SDS011;9636;47.382;8.480;2023-05-29T01:29:13;4.00;;;3.30;;
19006;SDS011;9636;47.382;8.480;2023-05-29T01:31:42;3.53;;;3.10;;
19006;SDS011;9636;47.382;8.480;2023-05-29T01:34:11;3.30;;;3.00;;
19006;SDS011;9636;47.382;8.480;2023-05-29T01:36:38;3.78;;;3.30;;
19006;SDS011;9636;47.382;8.480;2023-05-29T01:39:05;3.43;;;3.13;;
19006;SDS011;9636;47.382;8.480;2023-05-29T01:41:32;3.78;;;3.20;;
19006;SDS011;9636;47.382;8.480;2023-05-29T01:44:03;3.40;;;3.10;;
19006;SDS011;9636;47.382;8.480;2023-05-29T01:46:35;3.50;;;3.00;;
19006;SDS011;9636;47.382;8.480;2023-05-29T01:49:02;3.90;;;3.10;;
19006;SDS011;9636;47.382;8.480;2023-05-29T01:51:29;3.33;;;3.03;;
19006;SDS011;9636;47.382;8.480;2023-05-29T01:53:57;3.55;;;3.10;;
19006;SDS011;9636;47.382;8.480;2023-05-29T01:56:25;3.10;;;2.80;;
19006;SDS011;9636;47.382;8.480;2023-05-29T01:58:53;4.35;;;3.13;;
19006;SDS011;9636;47.382;8.480;2023-05-29T02:01:22;3.20;;;2.90;;
19006;SDS011;9636;47.382;8.480;2023-05-29T02:03:50;3.55;;;3.10;;
19006;SDS011;9636;47.382;8.480;2023-05-29T02:06:17;3.28;;;2.97;;
19006;SDS011;9636;47.382;8.480;2023-05-29T02:08:44;3.33;;;3.03;;
19006;SDS011;9636;47.382;8.480;2023-05-29T02:11:11;3.45;;;3.00;;
19006;SDS011;9636;47.382;8.480;2023-05-29T02:13:38;3.47;;;3.05;;
19006;SDS011;9636;47.382;8.480;2023-05-29T02:16:05;3.45;;;3.15;;
19006;SDS011;9636;47.382;8.480;2023-05-29T02:18:33;3.50;;;3.20;;
19006;SDS011;9636;47.382;8.480;2023-05-29T02:21:00;3.30;;;3.00;;
19006;SDS011;9636;47.382;8.480;2023-05-29T02:23:27;3.55;;;3.20;;
19006;SDS011;9636;47.382;8.480;2023-05-29T02:25:54;3.58;;;3.20;;
19006;SDS011;9636;47.382;8.480;2023-05-29T02:28:21;4.13;;;3.15;;
19006;SDS011;9636;47.382;8.480;2023-05-29T02:30:48;3.03;;;2.72;;
19006;SDS011;9636;47.382;8.480;2023-05-29T02:33:15;4.13;;;3.30;;
19006;SDS011;9636;47.382;8.480;2023-05-29T02:35:43;3.45;;;3.15;;
19006;SDS011;9636;47.382;8.480;2023-05-29T02:38:10;3.42;;;2.80;;
19006;SDS011;9636;47.382;8.480;2023-05-29T02:40:36;3.30;;;3.00;;
19006;SDS011;9636;47.382;8.480;2023-05-29T02:43:04;3.63;;;3.10;;
19006;SDS011;9636;47.382;8.480;2023-05-29T02:45:31;3.40;;;3.10;;
19006;SDS011;9636;47.382;8.480;2023-05-29T02:47:59;3.60;;;3.30;;
19006;SDS011;9636;47.382;8.480;2023-05-29T02:50:25;3.50;;;3.20;;
19006;SDS011;9636;47.382;8.480;2023-05-29T02:52:54;4.22;;;3.30;;
19006;SDS011;9636;47.382;8.480;2023-05-29T02:55:21;3.50;;;3.10;;
19006;SDS011;9636;47.382;8.480;2023-05-29T02:57:47;3.25;;;2.95;;
19006;SDS011;9636;47.382;8.480;2023-05-29T03:00:18;3.47;;;2.97;;
19006;SDS011;9636;47.382;8.480;2023-05-29T03:02:45;3.45;;;3.15;;
19006;SDS011;9636;47.382;8.480;2023-05-29T03:05:12;3.80;;;3.10;;
19006;SDS011;9636;47.382;8.480;2023-05-29T03:07:39;3.30;;;3.00;;
19006;SDS011;9636;47.382;8.480;2023-05-29T03:10:08;3.45;;;2.92;;
19006;SDS011;9636;47.382;8.480;2023-05-29T03:12:36;3.60;;;3.20;;
19006;SDS011;9636;47.382;8.480;2023-05-29T03:15:04;3.58;;;2.90;;
19006;SDS011;9636;47.382;8.480;2023-05-29T03:17:32;4.22;;;3.38;;
19006;SDS011;9636;47.382;8.480;2023-05-29T03:20:03;3.90;;;2.92;;
19006;SDS011;9636;47.382;8.480;2023-05-29T03:22:33;3.25;;;2.95;;
19006;SDS011;9636;47.382;8.480;2023-05-29T03:25:01;3.60;;;3.15;;
19006;SDS011;9636;47.382;8.480;2023-05-29T03:27:29;3.47;;;3.08;;
19006;SDS011;9636;47.382;8.480;2023-05-29T03:29:56;3.40;;;3.10;;
19006;SDS011;9636;47.382;8.480;2023-05-29T03:32:25;3.30;;;3.00;;
19006;SDS011;9636;47.382;8.480;2023-05-29T03:34:51;3.97;;;3.03;;
19006;SDS011;9636;47.382;8.480;2023-05-29T03:37:18;3.55;;;3.00;;
19006;SDS011;9636;47.382;8.480;2023-05-29T03:39:45;3.30;;;3.00;;
19006;SDS011;9636;47.382;8.480;2023-05-29T03:42:12;3.45;;;3.15;;
19006;SDS011;9636;47.382;8.480;2023-05-29T03:44:41;3.63;;;3.20;;
19006;SDS011;9636;47.382;8.480;2023-05-29T03:47:07;3.75;;;3.10;;
19006;SDS011;9636;47.382;8.480;2023-05-29T03:49:34;3.58;;;3.22;;
19006;SDS011;9636;47.382;8.480;2023-05-29T03:52:01;3.38;;;3.00;;
19006;SDS011;9636;47.382;8.480;2023-05-29T03:54:28;3.70;;;3.33;;
19006;SDS011;9636;47.382;8.480;2023-05-29T03:56:55;3.70;;;3.10;;
19006;SDS011;9636;47.382;8.480;2023-05-29T03:59:21;3.50;;;3.10;;
19006;SDS011;9636;47.382;8.480;2023-05-29T04:01:50;3.28;;;2.97;;
19006;SDS011;9636;47.382;8.480;2023-05-29T04:04:16;3.17;;;2.88;;
19006;SDS011;9636;47.382;8.480;2023-05-29T04:06:43;3.15;;;2.80;;
19006;SDS011;9636;47.382;8.480;2023-05-29T04:09:10;3.47;;;2.80;;
19006;SDS011;9636;47.382;8.480;2023-05-29T04:11:37;3.53;;;3.22;;
19006;SDS011;9636;47.382;8.480;2023-05-29T04:14:04;3.72;;;3.10;;
19006;SDS011;9636;47.382;8.480;2023-05-29T04:16:31;3.40;;;3.08;;
19006;SDS011;9636;47.382;8.480;2023-05-29T04:18:59;3.30;;;3.00;;
19006;SDS011;9636;47.382;8.480;2023-05-29T04:21:26;3.65;;;3.22;;
19006;SDS011;9636;47.382;8.480;2023-05-29T04:23:53;3.45;;;3.15;;
19006;SDS011;9636;47.382;8.480;2023-05-29T04:26:19;3.65;;;3.30;;
19006;SDS011;9636;47.382;8.480;2023-05-29T04:28:49;3.45;;;2.97;;
19006;SDS011;9636;47.382;8.480;2023-05-29T04:31:17;3.33;;;3.00;;
19006;SDS011;9636;47.382;8.480;2023-05-29T04:33:47;3.67;;;3.20;;
19006;SDS011;9636;47.382;8.480;2023-05-29T04:36:15;3.30;;;2.88;;
19006;SDS011;9636;47.382;8.480;2023-05-29T04:38:42;3.53;;;3.10;;
19006;SDS011;9636;47.382;8.480;2023-05-29T04:41:10;3.30;;;3.00;;
19006;SDS011;9636;47.382;8.480;2023-05-29T04:43:37;3.67;;;2.95;;
19006;SDS011;9636;47.382;8.480;2023-05-29T04:46:05;3.60;;;2.97;;
19006;SDS011;9636;47.382;8.480;2023-05-29T04:48:37;3.70;;;3.08;;
19006;SDS011;9636;47.382;8.480;2023-05-29T04:51:05;3.40;;;3.10;;
19006;SDS011;9636;47.382;8.480;2023-05-29T04:53:37;3.47;;;3.17;;
19006;SDS011;9636;47.382;8.480;2023-05-29T04:56:05;3.17;;;2.87;;
19006;SDS011;9636;47.382;8.480;2023-05-29T04:58:32;3.63;;;3.15;;
19006;SDS011;9636;47.382;8.480;2023-05-29T05:00:59;3.83;;;3.10;;
19006;SDS011;9636;47.382;8.480;2023-05-29T05:03:28;3.47;;;3.10;;
19006;SDS011;9636;47.382;8.480;2023-05-29T05:05:55;3.47;;;2.92;;
19006;SDS011;9636;47.382;8.480;2023-05-29T05:08:22;4.15;;;3.05;;
19006;SDS011;9636;47.382;8.480;2023-05-29T05:10:50;3.80;;;3.17;;
19006;SDS011;9636;47.382;8.480;2023-05-29T05:13:17;3.37;;;3.00;;
19006;SDS011;9636;47.382;8.480;2023-05-29T05:15:44;3.78;;;3.10;;
19006;SDS011;9636;47.382;8.480;2023-05-29T05:18:11;3.67;;;3.20;;
19006;SDS011;9636;47.382;8.480;2023-05-29T05:20:37;3.38;;;3.08;;
19006;SDS011;9636;47.382;8.480;2023-05-29T05:23:05;3.60;;;3.30;;
19006;SDS011;9636;47.382;8.480;2023-05-29T05:25:32;3.25;;;2.95;;
19006;SDS011;9636;47.382;8.480;2023-05-29T05:28:01;3.80;;;3.28;;
19006;SDS011;9636;47.382;8.480;2023-05-29T05:30:29;3.40;;;3.10;;
19006;SDS011;9636;47.382;8.480;2023-05-29T05:32:56;3.33;;;3.03;;
19006;SDS011;9636;47.382;8.480;2023-05-29T05:35:23;4.22;;;3.25;;
19006;SDS011;9636;47.382;8.480;2023-05-29T05:37:50;3.08;;;2.78;;
19006;SDS011;9636;47.382;8.480;2023-05-29T05:40:17;3.15;;;2.80;;
19006;SDS011;9636;47.382;8.480;2023-05-29T05:42:44;3.55;;;3.10;;
19006;SDS011;9636;47.382;8.480;2023-05-29T05:45:12;3.30;;;3.00;;
19006;SDS011;9636;47.382;8.480;2023-05-29T05:47:38;3.65;;;2.85;;
19006;SDS011;9636;47.382;8.480;2023-05-29T05:50:06;3.15;;;2.85;;
19006;SDS011;9636;47.382;8.480;2023-05-29T05:52:34;3.23;;;2.93;;
19006;SDS011;9636;47.382;8.480;2023-05-29T05:55:00;3.30;;;2.88;;
19006;SDS011;9636;47.382;8.480;2023-05-29T05:57:28;3.80;;;3.10;;
19006;SDS011;9636;47.382;8.480;2023-05-29T05:59:57;2.88;;;2.67;;
19006;SDS011;9636;47.382;8.480;2023-05-29T06:02:25;3.00;;;2.70;;
19006;SDS011;9636;47.382;8.480;2023-05-29T06:04:52;3.92;;;2.90;;
19006;SDS011;9636;47.382;8.480;2023-05-29T06:07:19;3.17;;;2.88;;
19006;SDS011;9636;47.382;8.480;2023-05-29T06:09:46;3.60;;;3.00;;
19006;SDS011;9636;47.382;8.480;2023-05-29T06:12:13;2.80;;;2.60;;
19006;SDS011;9636;47.382;8.480;2023-05-29T06:14:40;3.13;;;2.83;;
19006;SDS011;9636;47.382;8.480;2023-05-29T06:17:07;2.78;;;2.58;;
19006;SDS011;9636;47.382;8.480;2023-05-29T06:19:35;3.78;;;3.10;;
19006;SDS011;9636;47.382;8.480;2023-05-29T06:22:02;3.17;;;2.85;;
19006;SDS011;9636;47.382;8.480;2023-05-29T06:24:29;3.35;;;2.65;;
19006;SDS011;9636;47.382;8.480;2023-05-29T06:26:56;4.55;;;2.70;;
19006;SDS011;9636;47.382;8.480;2023-05-29T06:29:23;7.72;;;5.13;;
19006;SDS011;9636;47.382;8.480;2023-05-29T06:31:50;7.53;;;5.35;;
19006;SDS011;9636;47.382;8.480;2023-05-29T06:34:17;9.00;;;5.80;;
19006;SDS011;9636;47.382;8.480;2023-05-29T06:36:45;8.77;;;5.70;;
19006;SDS011;9636;47.382;8.480;2023-05-29T06:39:13;11.20;;;5.97;;
19006;SDS011;9636;47.382;8.480;2023-05-29T06:41:40;7.20;;;5.78;;
19006;SDS011;9636;47.382;8.480;2023-05-29T06:44:07;8.20;;;6.10;;
19006;SDS011;9636;47.382;8.480;2023-05-29T06:46:33;10.68;;;6.22;;
19006;SDS011;9636;47.382;8.480;2023-05-29T06:49:00;9.93;;;6.03;;
19006;SDS011;9636;47.382;8.480;2023-05-29T06:51:27;11.90;;;6.65;;
19006;SDS011;9636;47.382;8.480;2023-05-29T06:53:55;11.48;;;6.18;;
19006;SDS011;9636;47.382;8.480;2023-05-29T06:56:22;9.15;;;6.25;;
19006;SDS011;9636;47.382;8.480;2023-05-29T06:58:49;9.20;;;6.28;;
19006;SDS011;9636;47.382;8.480;2023-05-29T07:01:15;9.27;;;6.20;;
19006;SDS011;9636;47.382;8.480;2023-05-29T07:03:42;8.63;;;6.13;;
19006;SDS011;9636;47.382;8.480;2023-05-29T07:06:09;8.77;;;6.35;;
19006;SDS011;9636;47.382;8.480;2023-05-29T07:08:36;10.70;;;6.53;;
19006;SDS011;9636;47.382;8.480;2023-05-29T07:11:04;8.30;;;5.95;;
19006;SDS011;9636;47.382;8.480;2023-05-29T07:13:31;11.98;;;6.57;;
19006;SDS011;9636;47.382;8.480;2023-05-29T07:15:58;9.35;;;6.32;;
19006;SDS011;9636;47.382;8.480;2023-05-29T07:18:25;8.80;;;6.28;;
19006;SDS011;9636;47.382;8.480;2023-05-29T07:20:51;10.35;;;6.10;;
19006;SDS011;9636;47.382;8.480;2023-05-29T07:23:18;9.32;;;6.20;;
19006;SDS011;9636;47.382;8.480;2023-05-29T07:25:45;10.30;;;6.20;;
19006;SDS011;9636;47.382;8.480;2023-05-29T07:28:13;10.45;;;5.80;;
19006;SDS011;9636;47.382;8.480;2023-05-29T07:30:41;10.95;;;6.57;;
19006;SDS011;9636;47.382;8.480;2023-05-29T07:33:07;9.35;;;6.78;;
19006;SDS011;9636;47.382;8.480;2023-05-29T07:35:34;8.70;;;6.15;;
19006;SDS011;9636;47.382;8.480;2023-05-29T07:38:01;11.27;;;6.60;;
19006;SDS011;9636;47.382;8.480;2023-05-29T07:40:28;9.90;;;6.15;;
19006;SDS011;9636;47.382;8.480;2023-05-29T07:42:55;11.48;;;6.18;;
19006;SDS011;9636;47.382;8.480;2023-05-29T07:45:23;9.70;;;6.38;;
19006;SDS011;9636;47.382;8.480;2023-05-29T07:47:50;9.05;;;6.20;;
19006;SDS011;9636;47.382;8.480;2023-05-29T07:50:16;10.27;;;6.22;;
19006;SDS011;9636;47.382;8.480;2023-05-29T07:52:44;10.20;;;5.97;;
19006;SDS011;9636;47.382;8.480;2023-05-29T07:55:11;8.40;;;5.85;;
19006;SDS011;9636;47.382;8.480;2023-05-29T07:57:38;7.95;;;5.97;;
19006;SDS011;9636;47.382;8.480;2023-05-29T08:00:06;8.63;;;5.55;;
19006;SDS011;9636;47.382;8.480;2023-05-29T08:02:35;9.75;;;5.88;;
19006;SDS011;9636;47.382;8.480;2023-05-29T08:05:02;8.45;;;5.80;;
19006;SDS011;9636;47.382;8.480;2023-05-29T08:07:29;9.68;;;5.80;;
19006;SDS011;9636;47.382;8.480;2023-05-29T08:09:57;9.30;;;5.60;;
19006;SDS011;9636;47.382;8.480;2023-05-29T08:12:24;7.68;;;5.57;;
19006;SDS011;9636;47.382;8.480;2023-05-29T08:14:50;7.43;;;5.30;;
19006;SDS011;9636;47.382;8.480;2023-05-29T08:17:17;9.50;;;5.88;;
19006;SDS011;9636;47.382;8.480;2023-05-29T11:10:58;8.50;;;5.20;;
19006;SDS011;9636;47.382;8.480;2023-05-29T11:13:25;7.65;;;5.65;;
19006;SDS011;9636;47.382;8.480;2023-05-29T11:16:10;9.27;;;5.57;;
19006;SDS011;9636;47.382;8.480;2023-05-29T11:18:40;7.63;;;5.30;;
19006;SDS011;9636;47.382;8.480;2023-05-29T11:21:12;6.85;;;5.25;;
19006;SDS011;9636;47.382;8.480;2023-05-29T11:23:51;6.97;;;5.20;;
19006;SDS011;9636;47.382;8.480;2023-05-29T11:26:19;8.07;;;5.33;;
19006;SDS011;9636;47.382;8.480;2023-05-29T11:28:48;7.25;;;5.20;;
19006;SDS011;9636;47.382;8.480;2023-05-29T11:31:15;7.32;;;5.20;;
19006;SDS011;9636;47.382;8.480;2023-05-29T11:33:47;10.68;;;5.22;;
19006;SDS011;9636;47.382;8.480;2023-05-29T11:36:16;6.80;;;5.25;;
19006;SDS011;9636;47.382;8.480;2023-05-29T11:38:43;5.88;;;5.03;;
19006;SDS011;9636;47.382;8.480;2023-05-29T11:41:12;6.55;;;4.90;;
19006;SDS011;9636;47.382;8.480;2023-05-29T11:43:39;6.80;;;5.00;;
19006;SDS011;9636;47.382;8.480;2023-05-29T11:48:47;7.18;;;5.10;;
19006;SDS011;9636;47.382;8.480;2023-05-29T11:51:14;5.40;;;4.35;;
19006;SDS011;9636;47.382;8.480;2023-05-29T11:53:41;8.40;;;4.72;;
19006;SDS011;9636;47.382;8.480;2023-05-29T11:56:08;8.40;;;4.93;;
19006;SDS011;9636;47.382;8.480;2023-05-29T11:58:37;6.10;;;4.82;;
19006;SDS011;9636;47.382;8.480;2023-05-29T12:01:05;6.47;;;4.65;;
19006;SDS011;9636;47.382;8.480;2023-05-29T12:03:36;5.78;;;4.38;;
19006;SDS011;9636;47.382;8.480;2023-05-29T12:06:04;6.35;;;4.70;;
19006;SDS011;9636;47.382;8.480;2023-05-29T12:08:32;7.97;;;4.78;;
19006;SDS011;9636;47.382;8.480;2023-05-29T12:10:59;5.68;;;4.80;;
19006;SDS011;9636;47.382;8.480;2023-05-29T12:13:26;5.90;;;4.72;;
19006;SDS011;9636;47.382;8.480;2023-05-29T12:15:56;10.10;;;5.47;;
19006;SDS011;9636;47.382;8.480;2023-05-29T12:18:24;7.72;;;4.93;;
19006;SDS011;9636;47.382;8.480;2023-05-29T12:20:56;7.65;;;5.40;;
19006;SDS011;9636;47.382;8.480;2023-05-29T12:23:24;7.60;;;5.47;;
19006;SDS011;9636;47.382;8.480;2023-05-29T12:25:51;8.25;;;5.50;;
19006;SDS011;9636;47.382;8.480;2023-05-29T12:28:18;7.57;;;5.40;;
19006;SDS011;9636;47.382;8.480;2023-05-29T12:30:47;7.70;;;5.60;;
19006;SDS011;9636;47.382;8.480;2023-05-29T12:33:25;7.85;;;5.63;;
19006;SDS011;9636;47.382;8.480;2023-05-29T12:35:54;8.30;;;5.85;;
19006;SDS011;9636;47.382;8.480;2023-05-29T12:38:21;7.78;;;5.57;;
19006;SDS011;9636;47.382;8.480;2023-05-29T12:40:49;8.63;;;5.63;;
19006;SDS011;9636;47.382;8.480;2023-05-29T12:43:17;8.07;;;5.43;;
19006;SDS011;9636;47.382;8.480;2023-05-29T12:45:44;7.25;;;5.55;;
19006;SDS011;9636;47.382;8.480;2023-05-29T12:48:11;6.55;;;5.40;;
19006;SDS011;9636;47.382;8.480;2023-05-29T12:50:39;8.30;;;5.53;;
19006;SDS011;9636;47.382;8.480;2023-05-29T12:53:07;7.68;;;5.63;;
19006;SDS011;9636;47.382;8.480;2023-05-29T12:55:35;6.32;;;5.32;;
19006;SDS011;9636;47.382;8.480;2023-05-29T12:58:03;7.15;;;5.55;;
19006;SDS011;9636;47.382;8.480;2023-05-29T13:00:31;7.80;;;5.57;;
19006;SDS011;9636;47.382;8.480;2023-05-29T13:02:59;8.77;;;5.50;;
19006;SDS011;9636;47.382;8.480;2023-05-29T13:05:27;8.38;;;5.57;;
19006;SDS011;9636;47.382;8.480;2023-05-29T13:07:55;6.95;;;5.32;;
19006;SDS011;9636;47.382;8.480;2023-05-29T13:10:23;7.53;;;5.82;;
19006;SDS011;9636;47.382;8.480;2023-05-29T13:12:51;7.72;;;5.55;;
19006;SDS011;9636;47.382;8.480;2023-05-29T13:15:20;6.68;;;5.40;;
19006;SDS011;9636;47.382;8.480;2023-05-29T13:17:48;7.10;;;5.75;;
19006;SDS011;9636;47.382;8.480;2023-05-29T13:20:15;7.75;;;5.93;;
19006;SDS011;9636;47.382;8.480;2023-05-29T13:22:43;7.23;;;5.80;;
19006;SDS011;9636;47.382;8.480;2023-05-29T13:25:13;7.75;;;5.50;;
19006;SDS011;9636;47.382;8.480;2023-05-29T13:27:43;7.53;;;5.55;;
19006;SDS011;9636;47.382;8.480;2023-05-29T13:30:11;6.88;;;5.60;;
19006;SDS011;9636;47.382;8.480;2023-05-29T13:32:39;7.43;;;5.38;;
19006;SDS011;9636;47.382;8.480;2023-05-29T13:35:06;7.20;;;5.68;;
19006;SDS011;9636;47.382;8.480;2023-05-29T13:37:34;6.87;;;5.23;;
19006;SDS011;9636;47.382;8.480;2023-05-29T13:40:01;6.70;;;5.77;;
19006;SDS011;9636;47.382;8.480;2023-05-29T13:42:31;8.48;;;5.80;;
19006;SDS011;9636;47.382;8.480;2023-05-29T13:44:58;8.00;;;5.82;;
19006;SDS011;9636;47.382;8.480;2023-05-29T13:47:24;7.85;;;5.80;;
19006;SDS011;9636;47.382;8.480;2023-05-29T13:49:53;7.07;;;6.32;;
19006;SDS011;9636;47.382;8.480;2023-05-29T13:52:20;7.80;;;5.82;;
19006;SDS011;9636;47.382;8.480;2023-05-29T13:54:47;7.38;;;6.03;;
19006;SDS011;9636;47.382;8.480;2023-05-29T13:57:14;6.73;;;5.60;;
19006;SDS011;9636;47.382;8.480;2023-05-29T13:59:42;7.70;;;5.68;;
19006;SDS011;9636;47.382;8.480;2023-05-29T14:02:09;6.78;;;5.65;;
19006;SDS011;9636;47.382;8.480;2023-05-29T14:04:37;7.93;;;5.53;;
19006;SDS011;9636;47.382;8.480;2023-05-29T14:07:04;7.43;;;5.73;;
19006;SDS011;9636;47.382;8.480;2023-05-29T14:09:31;7.72;;;5.90;;
19006;SDS011;9636;47.382;8.480;2023-05-29T14:11:58;7.95;;;5.72;;
19006;SDS011;9636;47.382;8.480;2023-05-29T14:14:27;7.90;;;5.67;;
19006;SDS011;9636;47.382;8.480;2023-05-29T14:16:55;7.30;;;5.50;;
19006;SDS011;9636;47.382;8.480;2023-05-29T14:19:22;6.70;;;5.35;;
19006;SDS011;9636;47.382;8.480;2023-05-29T14:21:49;8.37;;;5.33;;
19006;SDS011;9636;47.382;8.480;2023-05-29T14:24:16;6.63;;;5.13;;
19006;SDS011;9636;47.382;8.480;2023-05-29T14:26:43;7.82;;;5.13;;
19006;SDS011;9636;47.382;8.480;2023-05-29T14:29:12;8.82;;;5.60;;
19006;SDS011;9636;47.382;8.480;2023-05-29T14:31:39;6.15;;;5.15;;
19006;SDS011;9636;47.382;8.480;2023-05-29T14:34:07;7.23;;;5.40;;
19006;SDS011;9636;47.382;8.480;2023-05-29T14:36:34;6.05;;;5.20;;
19006;SDS011;9636;47.382;8.480;2023-05-29T14:39:02;6.60;;;5.25;;
19006;SDS011;9636;47.382;8.480;2023-05-29T14:41:29;8.75;;;5.35;;
19006;SDS011;9636;47.382;8.480;2023-05-29T14:43:56;8.35;;;5.57;;
19006;SDS011;9636;47.382;8.480;2023-05-29T14:46:24;6.55;;;5.40;;
19006;SDS011;9636;47.382;8.480;2023-05-29T14:48:51;7.15;;;4.90;;
19006;SDS011;9636;47.382;8.480;2023-05-29T14:51:20;8.75;;;5.22;;
19006;SDS011;9636;47.382;8.480;2023-05-29T14:53:49;6.25;;;5.03;;
19006;SDS011;9636;47.382;8.480;2023-05-29T14:56:16;6.97;;;5.03;;
19006;SDS011;9636;47.382;8.480;2023-05-29T14:58:43;7.75;;;4.82;;
19006;SDS011;9636;47.382;8.480;2023-05-29T15:01:09;9.43;;;5.30;;
19006;SDS011;9636;47.382;8.480;2023-05-29T15:03:36;6.53;;;5.10;;
19006;SDS011;9636;47.382;8.480;2023-05-29T15:06:03;8.57;;;5.22;;
19006;SDS011;9636;47.382;8.480;2023-05-29T15:08:33;6.28;;;4.95;;
19006;SDS011;9636;47.382;8.480;2023-05-29T15:11:00;9.32;;;5.40;;
19006;SDS011;9636;47.382;8.480;2023-05-29T15:13:27;6.00;;;4.90;;
19006;SDS011;9636;47.382;8.480;2023-05-29T15:15:54;8.10;;;4.80;;
19006;SDS011;9636;47.382;8.480;2023-05-29T15:18:24;7.72;;;4.88;;
19006;SDS011;9636;47.382;8.480;2023-05-29T15:20:51;5.32;;;4.50;;
19006;SDS011;9636;47.382;8.480;2023-05-29T15:23:18;5.88;;;4.30;;
19006;SDS011;9636;47.382;8.480;2023-05-29T15:25:48;6.27;;;4.90;;
19006;SDS011;9636;47.382;8.480;2023-05-29T15:28:15;6.87;;;4.53;;
19006;SDS011;9636;47.382;8.480;2023-05-29T15:30:42;8.57;;;4.70;;
19006;SDS011;9636;47.382;8.480;2023-05-29T15:33:09;7.03;;;4.70;;
19006;SDS011;9636;47.382;8.480;2023-05-29T15:35:36;6.05;;;4.60;;
19006;SDS011;9636;47.382;8.480;2023-05-29T15:38:03;7.15;;;4.80;;
19006;SDS011;9636;47.382;8.480;2023-05-29T15:40:30;8.97;;;4.60;;
19006;SDS011;9636;47.382;8.480;2023-05-29T15:42:59;6.47;;;4.68;;
19006;SDS011;9636;47.382;8.480;2023-05-29T15:45:26;6.68;;;4.50;;
19006;SDS011;9636;47.382;8.480;2023-05-29T15:47:53;6.68;;;4.30;;
19006;SDS011;9636;47.382;8.480;2023-05-29T15:50:19;7.95;;;5.28;;
19006;SDS011;9636;47.382;8.480;2023-05-29T15:52:46;8.27;;;5.03;;
19006;SDS011;9636;47.382;8.480;2023-05-29T15:55:14;6.03;;;5.13;;
19006;SDS011;9636;47.382;8.480;2023-05-29T15:57:41;5.90;;;4.85;;
19006;SDS011;9636;47.382;8.480;2023-05-29T16:00:10;6.07;;;4.80;;
19006;SDS011;9636;47.382;8.480;2023-05-29T16:02:38;6.43;;;4.53;;
19006;SDS011;9636;47.382;8.480;2023-05-29T16:05:05;8.88;;;5.03;;
19006;SDS011;9636;47.382;8.480;2023-05-29T16:07:32;8.27;;;4.70;;
19006;SDS011;9636;47.382;8.480;2023-05-29T16:10:00;8.00;;;5.18;;
19006;SDS011;9636;47.382;8.480;2023-05-29T16:12:27;8.88;;;4.50;;
19006;SDS011;9636;47.382;8.480;2023-05-29T16:14:54;8.82;;;4.70;;
19006;SDS011;9636;47.382;8.480;2023-05-29T16:17:22;8.48;;;4.63;;
19006;SDS011;9636;47.382;8.480;2023-05-29T16:19:49;9.27;;;4.68;;
19006;SDS011;9636;47.382;8.480;2023-05-29T16:22:19;5.93;;;4.47;;
19006;SDS011;9636;47.382;8.480;2023-05-29T16:24:47;7.38;;;4.68;;
19006;SDS011;9636;47.382;8.480;2023-05-29T16:27:13;8.07;;;5.25;;
19006;SDS011;9636;47.382;8.480;2023-05-29T16:29:40;7.68;;;4.65;;
19006;SDS011;9636;47.382;8.480;2023-05-29T16:32:07;6.78;;;4.68;;
19006;SDS011;9636;47.382;8.480;2023-05-29T16:34:35;7.40;;;4.75;;
19006;SDS011;9636;47.382;8.480;2023-05-29T16:37:02;7.30;;;4.50;;
19006;SDS011;9636;47.382;8.480;2023-05-29T16:39:31;8.43;;;4.80;;
19006;SDS011;9636;47.382;8.480;2023-05-29T16:41:58;5.13;;;4.35;;
19006;SDS011;9636;47.382;8.480;2023-05-29T16:44:25;7.35;;;4.43;;
19006;SDS011;9636;47.382;8.480;2023-05-29T16:46:52;8.25;;;4.68;;
19006;SDS011;9636;47.382;8.480;2023-05-29T16:49:18;6.93;;;5.20;;
19006;SDS011;9636;47.382;8.480;2023-05-29T16:51:48;7.65;;;4.40;;
19006;SDS011;9636;47.382;8.480;2023-05-29T16:54:15;7.20;;;4.65;;
19006;SDS011;9636;47.382;8.480;2023-05-29T16:56:42;6.32;;;4.35;;
19006;SDS011;9636;47.382;8.480;2023-05-29T16:59:09;8.38;;;4.25;;
19006;SDS011;9636;47.382;8.480;2023-05-29T17:01:36;6.63;;;4.50;;
19006;SDS011;9636;47.382;8.480;2023-05-29T17:04:03;6.03;;;4.38;;
19006;SDS011;9636;47.382;8.480;2023-05-29T17:06:32;7.10;;;4.30;;
19006;SDS011;9636;47.382;8.480;2023-05-29T17:09:01;6.35;;;4.93;;
19006;SDS011;9636;47.382;8.480;2023-05-29T17:11:28;6.90;;;4.78;;
19006;SDS011;9636;47.382;8.480;2023-05-29T17:13:55;6.20;;;4.40;;
19006;SDS011;9636;47.382;8.480;2023-05-29T17:16:22;7.10;;;4.43;;
19006;SDS011;9636;47.382;8.480;2023-05-29T17:18:49;6.60;;;4.43;;
19006;SDS011;9636;47.382;8.480;2023-05-29T17:21:16;14.02;;;9.98;;
19006;SDS011;9636;47.382;8.480;2023-05-29T17:23:42;7.30;;;4.90;;
19006;SDS011;9636;47.382;8.480;2023-05-29T17:26:10;7.20;;;4.70;;
19006;SDS011;9636;47.382;8.480;2023-05-29T17:28:38;9.10;;;5.20;;
19006;SDS011;9636;47.382;8.480;2023-05-29T17:31:05;6.70;;;4.32;;
19006;SDS011;9636;47.382;8.480;2023-05-29T17:33:32;5.75;;;4.10;;
19006;SDS011;9636;47.382;8.480;2023-05-29T17:35:58;6.32;;;4.50;;
19006;SDS011;9636;47.382;8.480;2023-05-29T17:38:25;6.43;;;4.17;;
19006;SDS011;9636;47.382;8.480;2023-05-29T17:40:52;6.15;;;3.80;;
19006;SDS011;9636;47.382;8.480;2023-05-29T17:43:20;5.07;;;3.92;;
19006;SDS011;9636;47.382;8.480;2023-05-29T17:45:47;6.53;;;4.28;;
19006;SDS011;9636;47.382;8.480;2023-05-29T17:48:17;7.47;;;4.28;;
19006;SDS011;9636;47.382;8.480;2023-05-29T17:50:44;7.20;;;4.65;;
19006;SDS011;9636;47.382;8.480;2023-05-29T17:53:11;8.55;;;4.85;;
19006;SDS011;9636;47.382;8.480;2023-05-29T17:55:38;7.20;;;4.80;;
19006;SDS011;9636;47.382;8.480;2023-05-29T17:58:05;9.15;;;5.72;;
19006;SDS011;9636;47.382;8.480;2023-05-29T18:00:34;8.25;;;4.70;;